sensor_id;sensor_type;location;lat;lon;timestamp;P1;durP1;ratioP1;P2;durP2;ratioP2
76714;SDS011;65644;44.990;20.288;2023-04-03T00:01:18;9.13;;;7.65;;
76714;SDS011;65644;44.990;20.288;2023-04-03T00:03:47;9.40;;;7.57;;
76714;SDS011;65644;44.990;20.288;2023-04-03T00:06:13;8.48;;;7.45;;
76714;SDS011;65644;44.990;20.288;2023-04-03T00:08:39;9.63;;;7.90;;
76714;SDS011;65644;44.990;20.288;2023-04-03T00:11:06;9.35;;;8.15;;
76714;SDS011;65644;44.990;20.288;2023-04-03T00:13:32;9.82;;;7.40;;
76714;SDS011;65644;44.990;20.288;2023-04-03T00:15:59;7.72;;;6.97;;
76714;SDS011;65644;44.990;20.288;2023-04-03T00:18:25;10.00;;;6.70;;
76714;SDS011;65644;44.990;20.288;2023-04-03T00:20:51;8.65;;;6.82;;
76714;SDS011;65644;44.990;20.288;2023-04-03T00:23:17;7.85;;;6.88;;
76714;SDS011;65644;44.990;20.288;2023-04-03T00:25:43;8.00;;;6.00;;
76714;SDS011;65644;44.990;20.288;2023-04-03T00:28:09;7.13;;;5.68;;
76714;SDS011;65644;44.990;20.288;2023-04-03T00:30:35;7.38;;;6.28;;
76714;SDS011;65644;44.990;20.288;2023-04-03T00:33:01;7.85;;;6.53;;
76714;SDS011;65644;44.990;20.288;2023-04-03T00:35:28;7.05;;;6.32;;
76714;SDS011;65644;44.990;20.288;2023-04-03T00:37:54;9.13;;;7.18;;
76714;SDS011;65644;44.990;20.288;2023-04-03T00:40:21;10.13;;;7.80;;
76714;SDS011;65644;44.990;20.288;2023-04-03T00:42:48;10.02;;;7.75;;
76714;SDS011;65644;44.990;20.288;2023-04-03T00:47:45;10.85;;;8.02;;
76714;SDS011;65644;44.990;20.288;2023-04-03T00:50:11;11.30;;;8.60;;
76714;SDS011;65644;44.990;20.288;2023-04-03T00:52:37;12.63;;;8.02;;
76714;SDS011;65644;44.990;20.288;2023-04-03T00:55:06;11.35;;;8.32;;
76714;SDS011;65644;44.990;20.288;2023-04-03T00:57:33;12.10;;;9.02;;
76714;SDS011;65644;44.990;20.288;2023-04-03T01:00:04;10.23;;;8.23;;
76714;SDS011;65644;44.990;20.288;2023-04-03T01:02:31;10.02;;;8.38;;
76714;SDS011;65644;44.990;20.288;2023-04-03T01:04:57;10.10;;;8.13;;
76714;SDS011;65644;44.990;20.288;2023-04-03T01:07:24;10.45;;;8.10;;
76714;SDS011;65644;44.990;20.288;2023-04-03T01:09:52;11.50;;;8.85;;
76714;SDS011;65644;44.990;20.288;2023-04-03T01:12:21;11.65;;;8.88;;
76714;SDS011;65644;44.990;20.288;2023-04-03T01:14:51;11.50;;;8.63;;
76714;SDS011;65644;44.990;20.288;2023-04-03T01:19:57;11.57;;;8.38;;
76714;SDS011;65644;44.990;20.288;2023-04-03T01:22:32;10.02;;;8.75;;
76714;SDS011;65644;44.990;20.288;2023-04-03T01:25:00;12.25;;;8.70;;
76714;SDS011;65644;44.990;20.288;2023-04-03T01:27:26;10.20;;;8.35;;
76714;SDS011;65644;44.990;20.288;2023-04-03T01:29:52;13.00;;;8.68;;
76714;SDS011;65644;44.990;20.288;2023-04-03T01:32:18;10.48;;;8.77;;
76714;SDS011;65644;44.990;20.288;2023-04-03T01:34:44;10.93;;;8.68;;
76714;SDS011;65644;44.990;20.288;2023-04-03T01:37:10;9.82;;;8.15;;
76714;SDS011;65644;44.990;20.288;2023-04-03T01:39:36;10.15;;;8.50;;
76714;SDS011;65644;44.990;20.288;2023-04-03T01:42:03;12.43;;;9.25;;
76714;SDS011;65644;44.990;20.288;2023-04-03T01:44:29;10.27;;;9.00;;
76714;SDS011;65644;44.990;20.288;2023-04-03T01:46:55;11.27;;;9.25;;
76714;SDS011;65644;44.990;20.288;2023-04-03T01:49:21;12.13;;;9.60;;
76714;SDS011;65644;44.990;20.288;2023-04-03T01:51:47;12.10;;;8.98;;
76714;SDS011;65644;44.990;20.288;2023-04-03T01:54:13;11.85;;;9.20;;
76714;SDS011;65644;44.990;20.288;2023-04-03T01:56:39;13.80;;;9.65;;
76714;SDS011;65644;44.990;20.288;2023-04-03T01:59:05;11.65;;;10.13;;
76714;SDS011;65644;44.990;20.288;2023-04-03T02:01:32;11.05;;;9.45;;
76714;SDS011;65644;44.990;20.288;2023-04-03T02:03:58;11.98;;;9.48;;
76714;SDS011;65644;44.990;20.288;2023-04-03T02:06:24;11.13;;;9.63;;
76714;SDS011;65644;44.990;20.288;2023-04-03T02:08:50;12.65;;;9.68;;
76714;SDS011;65644;44.990;20.288;2023-04-03T02:11:16;13.40;;;10.57;;
76714;SDS011;65644;44.990;20.288;2023-04-03T02:13:42;14.13;;;9.85;;
76714;SDS011;65644;44.990;20.288;2023-04-03T02:16:08;15.38;;;10.32;;
76714;SDS011;65644;44.990;20.288;2023-04-03T02:18:36;11.55;;;10.27;;
76714;SDS011;65644;44.990;20.288;2023-04-03T02:21:02;12.02;;;9.80;;
76714;SDS011;65644;44.990;20.288;2023-04-03T02:23:28;11.50;;;9.77;;
76714;SDS011;65644;44.990;20.288;2023-04-03T02:26:02;11.57;;;9.95;;
76714;SDS011;65644;44.990;20.288;2023-04-03T02:28:28;11.48;;;9.68;;
76714;SDS011;65644;44.990;20.288;2023-04-03T02:30:54;11.75;;;10.30;;
76714;SDS011;65644;44.990;20.288;2023-04-03T02:33:20;10.43;;;9.25;;
76714;SDS011;65644;44.990;20.288;2023-04-03T02:35:46;11.32;;;10.10;;
76714;SDS011;65644;44.990;20.288;2023-04-03T02:38:18;13.52;;;10.27;;
76714;SDS011;65644;44.990;20.288;2023-04-03T02:40:44;14.77;;;11.45;;
76714;SDS011;65644;44.990;20.288;2023-04-03T02:43:10;15.45;;;11.00;;
76714;SDS011;65644;44.990;20.288;2023-04-03T02:45:36;13.32;;;10.85;;
76714;SDS011;65644;44.990;20.288;2023-04-03T02:48:03;13.35;;;11.18;;
76714;SDS011;65644;44.990;20.288;2023-04-03T02:50:29;13.52;;;10.65;;
76714;SDS011;65644;44.990;20.288;2023-04-03T02:52:55;14.13;;;10.65;;
76714;SDS011;65644;44.990;20.288;2023-04-03T02:55:21;12.90;;;10.27;;
76714;SDS011;65644;44.990;20.288;2023-04-03T02:57:47;14.77;;;11.60;;
76714;SDS011;65644;44.990;20.288;2023-04-03T03:00:13;14.38;;;11.68;;
76714;SDS011;65644;44.990;20.288;2023-04-03T03:02:39;13.50;;;11.43;;
76714;SDS011;65644;44.990;20.288;2023-04-03T03:05:06;13.35;;;10.98;;
76714;SDS011;65644;44.990;20.288;2023-04-03T03:07:32;14.88;;;11.63;;
76714;SDS011;65644;44.990;20.288;2023-04-03T03:09:58;14.95;;;11.77;;
76714;SDS011;65644;44.990;20.288;2023-04-03T03:12:24;14.30;;;10.85;;
76714;SDS011;65644;44.990;20.288;2023-04-03T03:14:50;13.25;;;11.25;;
76714;SDS011;65644;44.990;20.288;2023-04-03T03:17:16;14.52;;;11.05;;
76714;SDS011;65644;44.990;20.288;2023-04-03T03:19:43;14.60;;;11.23;;
76714;SDS011;65644;44.990;20.288;2023-04-03T03:22:10;14.63;;;11.43;;
76714;SDS011;65644;44.990;20.288;2023-04-03T03:24:36;14.38;;;11.40;;
76714;SDS011;65644;44.990;20.288;2023-04-03T03:27:02;15.05;;;12.15;;
76714;SDS011;65644;44.990;20.288;2023-04-03T03:29:28;14.30;;;11.07;;
76714;SDS011;65644;44.990;20.288;2023-04-03T03:31:55;17.95;;;11.73;;
76714;SDS011;65644;44.990;20.288;2023-04-03T03:34:21;13.48;;;11.15;;
76714;SDS011;65644;44.990;20.288;2023-04-03T03:36:47;13.98;;;11.35;;
76714;SDS011;65644;44.990;20.288;2023-04-03T03:39:13;15.77;;;12.15;;
76714;SDS011;65644;44.990;20.288;2023-04-03T03:41:39;15.32;;;12.05;;
76714;SDS011;65644;44.990;20.288;2023-04-03T03:44:05;17.38;;;12.25;;
76714;SDS011;65644;44.990;20.288;2023-04-03T03:46:31;15.00;;;11.98;;
76714;SDS011;65644;44.990;20.288;2023-04-03T03:48:57;16.58;;;12.45;;
76714;SDS011;65644;44.990;20.288;2023-04-03T03:51:23;15.10;;;10.98;;
76714;SDS011;65644;44.990;20.288;2023-04-03T03:53:49;15.68;;;11.63;;
76714;SDS011;65644;44.990;20.288;2023-04-03T03:56:15;15.73;;;12.57;;
76714;SDS011;65644;44.990;20.288;2023-04-03T03:58:41;16.50;;;12.23;;
76714;SDS011;65644;44.990;20.288;2023-04-03T04:01:08;15.73;;;12.30;;
76714;SDS011;65644;44.990;20.288;2023-04-03T04:03:34;14.98;;;12.10;;
76714;SDS011;65644;44.990;20.288;2023-04-03T04:06:00;17.67;;;12.85;;
76714;SDS011;65644;44.990;20.288;2023-04-03T04:08:26;17.05;;;13.00;;
76714;SDS011;65644;44.990;20.288;2023-04-03T04:10:52;16.13;;;12.90;;
76714;SDS011;65644;44.990;20.288;2023-04-03T04:13:18;17.05;;;13.23;;
76714;SDS011;65644;44.990;20.288;2023-04-03T04:15:44;16.92;;;12.52;;
76714;SDS011;65644;44.990;20.288;2023-04-03T04:18:10;18.17;;;13.35;;
76714;SDS011;65644;44.990;20.288;2023-04-03T04:20:36;18.27;;;12.70;;
76714;SDS011;65644;44.990;20.288;2023-04-03T04:23:02;16.90;;;12.55;;
76714;SDS011;65644;44.990;20.288;2023-04-03T04:25:29;16.60;;;13.63;;
76714;SDS011;65644;44.990;20.288;2023-04-03T04:27:55;17.58;;;13.65;;
76714;SDS011;65644;44.990;20.288;2023-04-03T04:30:21;17.05;;;12.80;;
76714;SDS011;65644;44.990;20.288;2023-04-03T04:32:47;19.08;;;13.15;;
76714;SDS011;65644;44.990;20.288;2023-04-03T04:35:13;16.63;;;12.88;;
76714;SDS011;65644;44.990;20.288;2023-04-03T04:37:39;17.17;;;12.65;;
76714;SDS011;65644;44.990;20.288;2023-04-03T04:40:05;19.52;;;13.77;;
76714;SDS011;65644;44.990;20.288;2023-04-03T04:42:31;18.38;;;13.45;;
76714;SDS011;65644;44.990;20.288;2023-04-03T04:44:57;16.02;;;13.00;;
76714;SDS011;65644;44.990;20.288;2023-04-03T04:47:23;17.52;;;13.05;;
76714;SDS011;65644;44.990;20.288;2023-04-03T04:49:49;18.95;;;13.70;;
76714;SDS011;65644;44.990;20.288;2023-04-03T04:52:16;19.10;;;14.32;;
76714;SDS011;65644;44.990;20.288;2023-04-03T04:54:42;17.48;;;13.65;;
76714;SDS011;65644;44.990;20.288;2023-04-03T04:57:08;22.52;;;14.20;;
76714;SDS011;65644;44.990;20.288;2023-04-03T04:59:35;18.58;;;14.27;;
76714;SDS011;65644;44.990;20.288;2023-04-03T05:02:01;19.58;;;14.13;;
76714;SDS011;65644;44.990;20.288;2023-04-03T05:04:27;16.98;;;13.20;;
76714;SDS011;65644;44.990;20.288;2023-04-03T05:06:53;19.45;;;15.20;;
76714;SDS011;65644;44.990;20.288;2023-04-03T05:09:19;19.98;;;14.25;;
76714;SDS011;65644;44.990;20.288;2023-04-03T05:11:45;20.27;;;13.85;;
76714;SDS011;65644;44.990;20.288;2023-04-03T05:14:11;18.40;;;14.13;;
76714;SDS011;65644;44.990;20.288;2023-04-03T05:16:38;18.50;;;13.18;;
76714;SDS011;65644;44.990;20.288;2023-04-03T05:19:04;19.55;;;13.65;;
76714;SDS011;65644;44.990;20.288;2023-04-03T05:21:30;18.13;;;14.07;;
76714;SDS011;65644;44.990;20.288;2023-04-03T05:24:00;22.70;;;15.23;;
76714;SDS011;65644;44.990;20.288;2023-04-03T05:26:28;21.73;;;13.88;;
76714;SDS011;65644;44.990;20.288;2023-04-03T05:28:54;25.23;;;13.10;;
76714;SDS011;65644;44.990;20.288;2023-04-03T05:31:20;18.05;;;11.68;;
76714;SDS011;65644;44.990;20.288;2023-04-03T05:33:46;12.80;;;9.98;;
76714;SDS011;65644;44.990;20.288;2023-04-03T05:36:12;10.38;;;5.90;;
76714;SDS011;65644;44.990;20.288;2023-04-03T05:38:38;9.60;;;6.00;;
76714;SDS011;65644;44.990;20.288;2023-04-03T05:41:04;10.70;;;6.32;;
76714;SDS011;65644;44.990;20.288;2023-04-03T05:43:30;8.95;;;5.43;;
76714;SDS011;65644;44.990;20.288;2023-04-03T05:45:57;6.97;;;5.00;;
76714;SDS011;65644;44.990;20.288;2023-04-03T05:48:23;8.63;;;6.07;;
76714;SDS011;65644;44.990;20.288;2023-04-03T05:50:50;8.25;;;5.20;;
76714;SDS011;65644;44.990;20.288;2023-04-03T05:53:38;10.02;;;5.55;;
76714;SDS011;65644;44.990;20.288;2023-04-03T05:56:03;6.07;;;4.43;;
76714;SDS011;65644;44.990;20.288;2023-04-03T05:58:29;5.60;;;3.95;;
76714;SDS011;65644;44.990;20.288;2023-04-03T06:00:55;4.60;;;3.55;;
76714;SDS011;65644;44.990;20.288;2023-04-03T06:03:22;15.05;;;10.00;;
76714;SDS011;65644;44.990;20.288;2023-04-03T06:05:48;7.55;;;4.90;;
76714;SDS011;65644;44.990;20.288;2023-04-03T06:08:14;7.45;;;4.28;;
76714;SDS011;65644;44.990;20.288;2023-04-03T06:10:40;6.78;;;4.07;;
76714;SDS011;65644;44.990;20.288;2023-04-03T06:13:06;7.28;;;4.00;;
76714;SDS011;65644;44.990;20.288;2023-04-03T06:15:32;4.47;;;3.80;;
76714;SDS011;65644;44.990;20.288;2023-04-03T06:17:59;5.38;;;3.75;;
76714;SDS011;65644;44.990;20.288;2023-04-03T06:20:25;7.80;;;3.85;;
76714;SDS011;65644;44.990;20.288;2023-04-03T06:22:51;4.88;;;3.90;;
76714;SDS011;65644;44.990;20.288;2023-04-03T06:25:17;20.15;;;11.98;;
76714;SDS011;65644;44.990;20.288;2023-04-03T06:27:44;7.78;;;5.07;;
76714;SDS011;65644;44.990;20.288;2023-04-03T06:30:10;5.05;;;3.97;;
76714;SDS011;65644;44.990;20.288;2023-04-03T06:32:37;5.57;;;3.20;;
76714;SDS011;65644;44.990;20.288;2023-04-03T06:35:04;4.95;;;3.53;;
76714;SDS011;65644;44.990;20.288;2023-04-03T06:37:30;3.42;;;3.00;;
76714;SDS011;65644;44.990;20.288;2023-04-03T06:39:57;4.68;;;3.05;;
76714;SDS011;65644;44.990;20.288;2023-04-03T06:42:23;3.25;;;2.45;;
76714;SDS011;65644;44.990;20.288;2023-04-03T06:44:49;2.85;;;2.35;;
76714;SDS011;65644;44.990;20.288;2023-04-03T06:47:16;4.30;;;2.92;;
76714;SDS011;65644;44.990;20.288;2023-04-03T06:49:42;6.32;;;2.88;;
76714;SDS011;65644;44.990;20.288;2023-04-03T06:52:08;3.13;;;2.83;;
76714;SDS011;65644;44.990;20.288;2023-04-03T06:54:37;3.75;;;2.90;;
76714;SDS011;65644;44.990;20.288;2023-04-03T06:57:03;6.38;;;3.30;;
76714;SDS011;65644;44.990;20.288;2023-04-03T06:59:29;3.08;;;2.78;;
76714;SDS011;65644;44.990;20.288;2023-04-03T07:01:55;5.35;;;2.78;;
76714;SDS011;65644;44.990;20.288;2023-04-03T07:04:21;7.03;;;4.40;;
76714;SDS011;65644;44.990;20.288;2023-04-03T07:06:47;3.45;;;3.15;;
76714;SDS011;65644;44.990;20.288;2023-04-03T07:09:14;3.45;;;2.67;;
76714;SDS011;65644;44.990;20.288;2023-04-03T07:11:40;6.00;;;2.70;;
76714;SDS011;65644;44.990;20.288;2023-04-03T07:14:06;9.95;;;6.47;;
76714;SDS011;65644;44.990;20.288;2023-04-03T07:16:33;4.57;;;3.17;;
76714;SDS011;65644;44.990;20.288;2023-04-03T07:18:59;3.95;;;2.33;;
76714;SDS011;65644;44.990;20.288;2023-04-03T07:21:26;4.05;;;2.35;;
76714;SDS011;65644;44.990;20.288;2023-04-03T07:23:52;2.50;;;2.30;;
76714;SDS011;65644;44.990;20.288;2023-04-03T07:26:19;3.03;;;2.72;;
76714;SDS011;65644;44.990;20.288;2023-04-03T07:28:46;4.40;;;3.28;;
76714;SDS011;65644;44.990;20.288;2023-04-03T07:31:13;7.65;;;4.38;;
76714;SDS011;65644;44.990;20.288;2023-04-03T07:33:40;6.32;;;4.32;;
76714;SDS011;65644;44.990;20.288;2023-04-03T07:36:06;8.30;;;4.85;;
76714;SDS011;65644;44.990;20.288;2023-04-03T07:38:33;14.05;;;8.38;;
76714;SDS011;65644;44.990;20.288;2023-04-03T07:40:59;20.65;;;7.38;;
76714;SDS011;65644;44.990;20.288;2023-04-03T07:43:25;16.02;;;6.63;;
76714;SDS011;65644;44.990;20.288;2023-04-03T07:45:51;15.68;;;7.10;;
76714;SDS011;65644;44.990;20.288;2023-04-03T07:48:19;12.63;;;6.38;;
76714;SDS011;65644;44.990;20.288;2023-04-03T07:50:46;5.50;;;3.65;;
76714;SDS011;65644;44.990;20.288;2023-04-03T07:53:12;3.28;;;2.97;;
76714;SDS011;65644;44.990;20.288;2023-04-03T07:55:38;5.00;;;4.03;;
76714;SDS011;65644;44.990;20.288;2023-04-03T07:58:12;3.55;;;3.25;;
76714;SDS011;65644;44.990;20.288;2023-04-03T08:00:39;8.38;;;6.25;;
76714;SDS011;65644;44.990;20.288;2023-04-03T08:03:06;3.85;;;3.00;;
76714;SDS011;65644;44.990;20.288;2023-04-03T08:05:36;5.88;;;2.78;;
76714;SDS011;65644;44.990;20.288;2023-04-03T08:08:02;2.33;;;1.98;;
76714;SDS011;65644;44.990;20.288;2023-04-03T08:10:29;3.78;;;2.25;;
76714;SDS011;65644;44.990;20.288;2023-04-03T08:12:56;5.18;;;2.15;;
76714;SDS011;65644;44.990;20.288;2023-04-03T08:15:22;2.70;;;2.40;;
76714;SDS011;65644;44.990;20.288;2023-04-03T08:17:48;2.38;;;2.17;;
76714;SDS011;65644;44.990;20.288;2023-04-03T08:20:14;2.60;;;2.40;;
76714;SDS011;65644;44.990;20.288;2023-04-03T08:22:40;3.03;;;2.40;;
76714;SDS011;65644;44.990;20.288;2023-04-03T08:25:06;2.53;;;2.08;;
76714;SDS011;65644;44.990;20.288;2023-04-03T08:27:33;2.40;;;2.20;;
76714;SDS011;65644;44.990;20.288;2023-04-03T08:29:59;5.13;;;2.90;;
76714;SDS011;65644;44.990;20.288;2023-04-03T08:32:25;4.15;;;2.72;;
76714;SDS011;65644;44.990;20.288;2023-04-03T08:34:51;4.10;;;2.65;;
76714;SDS011;65644;44.990;20.288;2023-04-03T08:37:17;4.80;;;2.95;;
76714;SDS011;65644;44.990;20.288;2023-04-03T08:39:44;6.47;;;3.20;;
76714;SDS011;65644;44.990;20.288;2023-04-03T08:42:25;3.25;;;2.65;;
76714;SDS011;65644;44.990;20.288;2023-04-03T08:45:06;3.55;;;2.45;;
76714;SDS011;65644;44.990;20.288;2023-04-03T08:50:16;3.20;;;2.60;;
76714;SDS011;65644;44.990;20.288;2023-04-03T08:52:47;8.68;;;2.80;;
76714;SDS011;65644;44.990;20.288;2023-04-03T08:57:41;3.95;;;3.05;;
76714;SDS011;65644;44.990;20.288;2023-04-03T09:02:45;3.33;;;2.53;;
76714;SDS011;65644;44.990;20.288;2023-04-03T09:05:13;4.35;;;2.80;;
76714;SDS011;65644;44.990;20.288;2023-04-03T09:07:42;2.63;;;2.17;;
76714;SDS011;65644;44.990;20.288;2023-04-03T09:10:10;2.80;;;2.50;;
76714;SDS011;65644;44.990;20.288;2023-04-03T09:12:38;4.82;;;2.75;;
76714;SDS011;65644;44.990;20.288;2023-04-03T09:22:42;3.65;;;2.38;;
76714;SDS011;65644;44.990;20.288;2023-04-03T09:27:41;3.30;;;2.53;;
76714;SDS011;65644;44.990;20.288;2023-04-03T09:30:12;5.82;;;2.70;;
76714;SDS011;65644;44.990;20.288;2023-04-03T09:32:39;3.40;;;2.58;;
76714;SDS011;65644;44.990;20.288;2023-04-03T09:35:50;2.78;;;2.30;;
76714;SDS011;65644;44.990;20.288;2023-04-03T09:38:24;2.40;;;2.20;;
76714;SDS011;65644;44.990;20.288;2023-04-03T09:40:44;2.42;;;2.10;;
76714;SDS011;65644;44.990;20.288;2023-04-03T09:45:43;7.78;;;4.00;;
76714;SDS011;65644;44.990;20.288;2023-04-03T09:53:26;4.00;;;2.72;;
76714;SDS011;65644;44.990;20.288;2023-04-03T09:55:52;3.38;;;2.63;;
76714;SDS011;65644;44.990;20.288;2023-04-03T09:58:28;3.58;;;2.40;;
76714;SDS011;65644;44.990;20.288;2023-04-03T10:00:56;3.70;;;2.70;;
76714;SDS011;65644;44.990;20.288;2023-04-03T10:03:35;4.95;;;2.63;;
76714;SDS011;65644;44.990;20.288;2023-04-03T10:06:02;4.20;;;2.78;;
76714;SDS011;65644;44.990;20.288;2023-04-03T10:08:30;2.35;;;2.15;;
76714;SDS011;65644;44.990;20.288;2023-04-03T10:11:07;6.95;;;3.30;;
76714;SDS011;65644;44.990;20.288;2023-04-03T10:13:34;3.22;;;2.40;;
76714;SDS011;65644;44.990;20.288;2023-04-03T10:16:06;3.42;;;2.42;;
76714;SDS011;65644;44.990;20.288;2023-04-03T10:18:43;5.40;;;2.85;;
76714;SDS011;65644;44.990;20.288;2023-04-03T10:21:13;3.50;;;2.90;;
76714;SDS011;65644;44.990;20.288;2023-04-03T10:23:51;5.07;;;2.33;;
76714;SDS011;65644;44.990;20.288;2023-04-03T10:31:25;2.58;;;1.67;;
76714;SDS011;65644;44.990;20.288;2023-04-03T10:41:39;2.88;;;1.70;;
76714;SDS011;65644;44.990;20.288;2023-04-03T10:46:47;2.25;;;1.83;;
76714;SDS011;65644;44.990;20.288;2023-04-03T10:51:56;2.70;;;2.28;;
76714;SDS011;65644;44.990;20.288;2023-04-03T10:54:36;8.25;;;2.80;;
76714;SDS011;65644;44.990;20.288;2023-04-03T10:57:05;1.95;;;1.60;;
76714;SDS011;65644;44.990;20.288;2023-04-03T11:01:59;2.33;;;1.70;;
76714;SDS011;65644;44.990;20.288;2023-04-03T11:04:27;2.00;;;1.80;;
76714;SDS011;65644;44.990;20.288;2023-04-03T11:07:10;4.45;;;1.55;;
76714;SDS011;65644;44.990;20.288;2023-04-03T11:09:37;2.75;;;1.92;;
76714;SDS011;65644;44.990;20.288;2023-04-03T11:14:51;4.60;;;2.38;;
76714;SDS011;65644;44.990;20.288;2023-04-03T11:22:41;3.40;;;2.10;;
76714;SDS011;65644;44.990;20.288;2023-04-03T11:27:55;1.55;;;1.42;;
76714;SDS011;65644;44.990;20.288;2023-04-03T11:33:00;3.65;;;1.02;;
76714;SDS011;65644;44.990;20.288;2023-04-03T11:37:55;2.35;;;1.40;;
76714;SDS011;65644;44.990;20.288;2023-04-03T11:40:24;1.83;;;1.33;;
76714;SDS011;65644;44.990;20.288;2023-04-03T11:43:05;2.40;;;1.80;;
76714;SDS011;65644;44.990;20.288;2023-04-03T11:47:59;1.95;;;1.10;;
76714;SDS011;65644;44.990;20.288;2023-04-03T11:53:01;2.47;;;1.55;;
76714;SDS011;65644;44.990;20.288;2023-04-03T12:13:40;1.98;;;1.15;;
76714;SDS011;65644;44.990;20.288;2023-04-03T12:16:06;1.60;;;1.38;;
76714;SDS011;65644;44.990;20.288;2023-04-03T12:23:35;6.60;;;2.17;;
76714;SDS011;65644;44.990;20.288;2023-04-03T12:26:04;1.73;;;1.40;;
76714;SDS011;65644;44.990;20.288;2023-04-03T12:28:38;1.90;;;1.50;;
76714;SDS011;65644;44.990;20.288;2023-04-03T12:31:04;1.23;;;1.10;;
76714;SDS011;65644;44.990;20.288;2023-04-03T12:46:21;3.92;;;1.95;;
76714;SDS011;65644;44.990;20.288;2023-04-03T12:48:48;5.30;;;2.83;;
76714;SDS011;65644;44.990;20.288;2023-04-03T12:51:31;3.58;;;1.63;;
76714;SDS011;65644;44.990;20.288;2023-04-03T12:54:01;3.75;;;1.13;;
76714;SDS011;65644;44.990;20.288;2023-04-03T12:56:29;1.50;;;1.33;;
76714;SDS011;65644;44.990;20.288;2023-04-03T12:58:56;1.63;;;1.40;;
76714;SDS011;65644;44.990;20.288;2023-04-03T13:01:37;1.92;;;1.30;;
76714;SDS011;65644;44.990;20.288;2023-04-03T13:04:03;5.10;;;1.40;;
76714;SDS011;65644;44.990;20.288;2023-04-03T13:06:32;1.88;;;1.20;;
76714;SDS011;65644;44.990;20.288;2023-04-03T13:09:00;5.70;;;1.20;;
76714;SDS011;65644;44.990;20.288;2023-04-03T13:11:47;5.10;;;1.60;;
76714;SDS011;65644;44.990;20.288;2023-04-03T13:14:18;2.47;;;1.27;;
76714;SDS011;65644;44.990;20.288;2023-04-03T13:19:27;4.22;;;2.13;;
76714;SDS011;65644;44.990;20.288;2023-04-03T13:22:01;3.63;;;2.45;;
76714;SDS011;65644;44.990;20.288;2023-04-03T13:24:28;2.53;;;2.00;;
76714;SDS011;65644;44.990;20.288;2023-04-03T13:26:55;4.78;;;2.65;;
76714;SDS011;65644;44.990;20.288;2023-04-03T13:29:26;3.92;;;2.30;;
76714;SDS011;65644;44.990;20.288;2023-04-03T13:31:53;2.85;;;1.58;;
76714;SDS011;65644;44.990;20.288;2023-04-03T13:34:22;2.28;;;1.95;;
76714;SDS011;65644;44.990;20.288;2023-04-03T13:41:47;2.25;;;2.08;;
76714;SDS011;65644;44.990;20.288;2023-04-03T13:46:48;4.97;;;1.75;;
76714;SDS011;65644;44.990;20.288;2023-04-03T13:49:32;2.15;;;2.05;;
76714;SDS011;65644;44.990;20.288;2023-04-03T13:51:58;2.65;;;2.10;;
76714;SDS011;65644;44.990;20.288;2023-04-03T13:54:32;2.63;;;2.28;;
76714;SDS011;65644;44.990;20.288;2023-04-03T13:56:59;6.05;;;2.42;;
76714;SDS011;65644;44.990;20.288;2023-04-03T13:59:30;3.38;;;2.05;;
76714;SDS011;65644;44.990;20.288;2023-04-03T14:04:27;2.80;;;1.45;;
76714;SDS011;65644;44.990;20.288;2023-04-03T14:06:53;2.08;;;1.88;;
76714;SDS011;65644;44.990;20.288;2023-04-03T14:09:20;5.32;;;1.60;;
76714;SDS011;65644;44.990;20.288;2023-04-03T14:11:47;7.85;;;2.70;;
76714;SDS011;65644;44.990;20.288;2023-04-03T14:14:17;2.20;;;2.00;;
76714;SDS011;65644;44.990;20.288;2023-04-03T14:16:45;2.90;;;1.42;;
76714;SDS011;65644;44.990;20.288;2023-04-03T14:19:17;3.30;;;1.58;;
76714;SDS011;65644;44.990;20.288;2023-04-03T14:21:43;2.28;;;1.30;;
76714;SDS011;65644;44.990;20.288;2023-04-03T14:24:09;2.25;;;1.48;;
76714;SDS011;65644;44.990;20.288;2023-04-03T14:26:36;3.88;;;1.20;;
76714;SDS011;65644;44.990;20.288;2023-04-03T14:29:02;2.47;;;1.30;;
76714;SDS011;65644;44.990;20.288;2023-04-03T14:31:30;1.90;;;1.33;;
76714;SDS011;65644;44.990;20.288;2023-04-03T14:33:56;1.75;;;1.50;;
76714;SDS011;65644;44.990;20.288;2023-04-03T14:36:23;1.30;;;1.20;;
76714;SDS011;65644;44.990;20.288;2023-04-03T14:38:50;1.20;;;1.10;;
76714;SDS011;65644;44.990;20.288;2023-04-03T14:41:17;2.58;;;1.42;;
76714;SDS011;65644;44.990;20.288;2023-04-03T14:43:44;1.65;;;1.10;;
76714;SDS011;65644;44.990;20.288;2023-04-03T14:46:15;1.40;;;1.23;;
76714;SDS011;65644;44.990;20.288;2023-04-03T14:48:41;2.03;;;1.40;;
76714;SDS011;65644;44.990;20.288;2023-04-03T14:51:09;2.47;;;1.40;;
76714;SDS011;65644;44.990;20.288;2023-04-03T14:53:36;2.67;;;1.67;;
76714;SDS011;65644;44.990;20.288;2023-04-03T14:56:02;1.88;;;1.50;;
76714;SDS011;65644;44.990;20.288;2023-04-03T14:58:28;5.00;;;1.98;;
76714;SDS011;65644;44.990;20.288;2023-04-03T15:00:54;1.65;;;1.55;;
76714;SDS011;65644;44.990;20.288;2023-04-03T15:03:21;2.15;;;1.15;;
76714;SDS011;65644;44.990;20.288;2023-04-03T15:05:48;1.45;;;1.17;;
76714;SDS011;65644;44.990;20.288;2023-04-03T15:08:18;2.75;;;1.70;;
76714;SDS011;65644;44.990;20.288;2023-04-03T15:10:45;2.60;;;1.80;;
76714;SDS011;65644;44.990;20.288;2023-04-03T15:13:12;4.45;;;2.03;;
76714;SDS011;65644;44.990;20.288;2023-04-03T15:15:38;6.20;;;2.65;;
76714;SDS011;65644;44.990;20.288;2023-04-03T15:18:04;2.28;;;1.90;;
76714;SDS011;65644;44.990;20.288;2023-04-03T15:20:31;2.10;;;1.55;;
76714;SDS011;65644;44.990;20.288;2023-04-03T15:22:58;2.30;;;1.40;;
76714;SDS011;65644;44.990;20.288;2023-04-03T15:25:29;3.88;;;1.38;;
76714;SDS011;65644;44.990;20.288;2023-04-03T15:27:55;1.30;;;1.20;;
76714;SDS011;65644;44.990;20.288;2023-04-03T15:30:21;1.52;;;1.42;;
76714;SDS011;65644;44.990;20.288;2023-04-03T15:32:48;3.45;;;1.95;;
76714;SDS011;65644;44.990;20.288;2023-04-03T15:35:14;2.00;;;1.63;;
76714;SDS011;65644;44.990;20.288;2023-04-03T15:37:40;2.35;;;1.92;;
76714;SDS011;65644;44.990;20.288;2023-04-03T15:40:06;2.42;;;1.92;;
76714;SDS011;65644;44.990;20.288;2023-04-03T15:42:33;2.13;;;1.95;;
76714;SDS011;65644;44.990;20.288;2023-04-03T15:44:59;1.85;;;1.63;;
76714;SDS011;65644;44.990;20.288;2023-04-03T15:47:25;1.60;;;1.38;;
76714;SDS011;65644;44.990;20.288;2023-04-03T15:49:52;2.42;;;1.10;;
76714;SDS011;65644;44.990;20.288;2023-04-03T15:52:19;2.08;;;1.65;;
76714;SDS011;65644;44.990;20.288;2023-04-03T15:54:45;1.65;;;1.48;;
76714;SDS011;65644;44.990;20.288;2023-04-03T15:57:11;3.08;;;1.30;;
76714;SDS011;65644;44.990;20.288;2023-04-03T15:59:37;3.03;;;1.77;;
76714;SDS011;65644;44.990;20.288;2023-04-03T16:02:03;3.50;;;1.88;;
76714;SDS011;65644;44.990;20.288;2023-04-03T16:04:31;3.50;;;2.63;;
76714;SDS011;65644;44.990;20.288;2023-04-03T16:07:00;3.97;;;2.83;;
76714;SDS011;65644;44.990;20.288;2023-04-03T16:09:26;4.60;;;3.90;;
76714;SDS011;65644;44.990;20.288;2023-04-03T16:11:52;13.05;;;9.10;;
76714;SDS011;65644;44.990;20.288;2023-04-03T16:14:18;10.30;;;8.68;;
76714;SDS011;65644;44.990;20.288;2023-04-03T16:16:44;7.00;;;5.50;;
76714;SDS011;65644;44.990;20.288;2023-04-03T16:19:10;9.45;;;6.80;;
76714;SDS011;65644;44.990;20.288;2023-04-03T16:21:37;12.98;;;7.65;;
76714;SDS011;65644;44.990;20.288;2023-04-03T16:24:03;15.18;;;8.90;;
76714;SDS011;65644;44.990;20.288;2023-04-03T16:26:30;15.70;;;9.93;;
76714;SDS011;65644;44.990;20.288;2023-04-03T16:28:56;8.63;;;6.25;;